Weston, Colorado
Current Conditions -  °F | °C
As of 7:53 AM on Monday 24 Nov 2014 (Local Time) from KRTN Reporting Station
Few Clouds Few Clouds  
Wind Chill:   Ceiling: Unl
Heat Index: 16°   Visibility: 10mi
Dew Point: 11°   Wind: 6mph
Humidity: 81%   Direction: 50°NE
Pressure: 29.99"   Gusts: NA
Location:  37.14°N, 104.85°W
Report Text: KRTN 241453Z AUTO 05005KT 10SM FEW120 M09/M12 A2999 RMK AO2 SLP189 T10891117 53011
Loading
Personal Weather Stations






























Interactive Weather Map New forecast layout! Learn more

10-Day Weather Forecast

Advertisements
Track Severe Weather on mobile